sensor_id;sensor_type;location;lat;lon;timestamp;pressure;altitude;pressure_sealevel;temperature;humidity
79645;BME280;69117;47.148;18.954;2023-07-02T00:02:10;99615.59;;;19.90;48.89
79645;BME280;69117;47.148;18.954;2023-07-02T00:05:11;99625.53;;;19.90;49.03
79645;BME280;69117;47.148;18.954;2023-07-02T00:08:13;99626.03;;;19.80;49.15
79645;BME280;69117;47.148;18.954;2023-07-02T00:11:15;99620.00;;;19.66;49.56
79645;BME280;69117;47.148;18.954;2023-07-02T00:14:17;99631.31;;;19.68;49.83
79645;BME280;69117;47.148;18.954;2023-07-02T00:17:19;99630.25;;;19.70;49.80
79645;BME280;69117;47.148;18.954;2023-07-02T00:20:21;99629.81;;;19.73;49.81
79645;BME280;69117;47.148;18.954;2023-07-02T00:23:23;99622.84;;;19.72;49.87
79645;BME280;69117;47.148;18.954;2023-07-02T00:26:25;99623.56;;;19.79;50.68
79645;BME280;69117;47.148;18.954;2023-07-02T00:29:27;99614.59;;;19.73;51.22
79645;BME280;69117;47.148;18.954;2023-07-02T00:32:29;99606.25;;;19.56;51.31
79645;BME280;69117;47.148;18.954;2023-07-02T00:35:31;99611.00;;;19.54;51.30
79645;BME280;69117;47.148;18.954;2023-07-02T00:38:32;99619.28;;;19.53;51.39
79645;BME280;69117;47.148;18.954;2023-07-02T00:41:34;99617.50;;;19.47;51.23
79645;BME280;69117;47.148;18.954;2023-07-02T00:44:35;99617.59;;;19.58;51.26
79645;BME280;69117;47.148;18.954;2023-07-02T00:47:42;99611.31;;;19.46;51.33
79645;BME280;69117;47.148;18.954;2023-07-02T00:50:44;99613.13;;;19.52;51.54
79645;BME280;69117;47.148;18.954;2023-07-02T00:53:49;99617.16;;;19.61;51.62
79645;BME280;69117;47.148;18.954;2023-07-02T00:56:51;99623.16;;;19.57;51.67
79645;BME280;69117;47.148;18.954;2023-07-02T00:59:53;99621.72;;;19.54;51.78
79645;BME280;69117;47.148;18.954;2023-07-02T01:02:57;99615.72;;;19.59;51.81
79645;BME280;69117;47.148;18.954;2023-07-02T01:06:01;99624.72;;;19.46;51.86
79645;BME280;69117;47.148;18.954;2023-07-02T01:09:05;99619.84;;;19.36;52.08
79645;BME280;69117;47.148;18.954;2023-07-02T01:12:08;99625.25;;;19.30;52.07
79645;BME280;69117;47.148;18.954;2023-07-02T01:15:11;99615.34;;;19.30;51.98
79645;BME280;69117;47.148;18.954;2023-07-02T01:18:14;99621.94;;;19.34;51.97
79645;BME280;69117;47.148;18.954;2023-07-02T01:21:16;99619.16;;;19.22;52.00
79645;BME280;69117;47.148;18.954;2023-07-02T01:24:18;99623.69;;;19.22;52.05
79645;BME280;69117;47.148;18.954;2023-07-02T01:27:22;99615.72;;;19.15;51.82
79645;BME280;69117;47.148;18.954;2023-07-02T01:30:24;99626.44;;;19.15;51.98
79645;BME280;69117;47.148;18.954;2023-07-02T01:33:27;99634.84;;;19.19;52.00
79645;BME280;69117;47.148;18.954;2023-07-02T01:36:29;99630.75;;;19.16;52.04
79645;BME280;69117;47.148;18.954;2023-07-02T01:39:30;99631.84;;;19.34;51.83
79645;BME280;69117;47.148;18.954;2023-07-02T01:42:32;99628.53;;;19.32;52.04
79645;BME280;69117;47.148;18.954;2023-07-02T01:45:34;99611.06;;;19.29;51.83
79645;BME280;69117;47.148;18.954;2023-07-02T01:48:36;99620.25;;;19.40;51.77
79645;BME280;69117;47.148;18.954;2023-07-02T01:51:37;99613.47;;;19.37;51.86
79645;BME280;69117;47.148;18.954;2023-07-02T01:54:39;99615.84;;;19.20;51.74
79645;BME280;69117;47.148;18.954;2023-07-02T01:57:41;99617.66;;;19.27;51.73
79645;BME280;69117;47.148;18.954;2023-07-02T02:00:43;99619.53;;;19.26;51.65
79645;BME280;69117;47.148;18.954;2023-07-02T02:03:44;99626.47;;;19.34;51.67
79645;BME280;69117;47.148;18.954;2023-07-02T02:06:46;99613.09;;;19.34;51.70
79645;BME280;69117;47.148;18.954;2023-07-02T02:09:48;99607.81;;;19.45;51.56
79645;BME280;69117;47.148;18.954;2023-07-02T02:12:49;99595.38;;;19.51;51.55
79645;BME280;69117;47.148;18.954;2023-07-02T02:15:51;99602.06;;;19.42;51.61
79645;BME280;69117;47.148;18.954;2023-07-02T02:18:53;99592.22;;;19.36;51.28
79645;BME280;69117;47.148;18.954;2023-07-02T02:21:55;99610.78;;;19.37;51.39
79645;BME280;69117;47.148;18.954;2023-07-02T02:24:57;99604.53;;;19.43;51.33
79645;BME280;69117;47.148;18.954;2023-07-02T02:27:58;99596.06;;;19.47;51.28
79645;BME280;69117;47.148;18.954;2023-07-02T02:31:00;99597.13;;;19.45;51.32
79645;BME280;69117;47.148;18.954;2023-07-02T02:34:03;99593.59;;;19.45;51.57
79645;BME280;69117;47.148;18.954;2023-07-02T02:37:04;99594.25;;;19.40;51.27
79645;BME280;69117;47.148;18.954;2023-07-02T02:40:07;99605.34;;;19.44;51.12
79645;BME280;69117;47.148;18.954;2023-07-02T02:43:10;99617.25;;;19.48;51.23
79645;BME280;69117;47.148;18.954;2023-07-02T02:46:12;99610.19;;;19.54;51.30
79645;BME280;69117;47.148;18.954;2023-07-02T02:49:14;99604.25;;;19.52;51.35
79645;BME280;69117;47.148;18.954;2023-07-02T02:52:15;99610.91;;;19.42;51.51
79645;BME280;69117;47.148;18.954;2023-07-02T02:55:17;99614.00;;;19.46;51.44
79645;BME280;69117;47.148;18.954;2023-07-02T02:58:19;99606.31;;;19.31;51.63
79645;BME280;69117;47.148;18.954;2023-07-02T03:01:21;99625.25;;;19.30;51.74
79645;BME280;69117;47.148;18.954;2023-07-02T03:04:23;99630.03;;;19.28;51.71
79645;BME280;69117;47.148;18.954;2023-07-02T03:07:27;99625.81;;;19.13;51.99
79645;BME280;69117;47.148;18.954;2023-07-02T03:10:29;99618.44;;;19.09;52.10
79645;BME280;69117;47.148;18.954;2023-07-02T03:13:30;99638.41;;;19.13;52.28
79645;BME280;69117;47.148;18.954;2023-07-02T03:16:32;99636.41;;;19.27;52.28
79645;BME280;69117;47.148;18.954;2023-07-02T03:19:35;99645.94;;;19.22;52.21
79645;BME280;69117;47.148;18.954;2023-07-02T03:22:36;99642.97;;;19.06;52.56
79645;BME280;69117;47.148;18.954;2023-07-02T03:25:38;99643.00;;;18.99;52.14
79645;BME280;69117;47.148;18.954;2023-07-02T03:28:39;99639.13;;;18.95;52.43
79645;BME280;69117;47.148;18.954;2023-07-02T03:31:41;99651.47;;;18.96;52.05
79645;BME280;69117;47.148;18.954;2023-07-02T03:34:43;99651.03;;;18.99;52.07
79645;BME280;69117;47.148;18.954;2023-07-02T03:37:44;99658.91;;;18.94;52.25
79645;BME280;69117;47.148;18.954;2023-07-02T03:40:47;99656.94;;;18.83;52.17
79645;BME280;69117;47.148;18.954;2023-07-02T03:43:49;99652.59;;;18.82;52.06
79645;BME280;69117;47.148;18.954;2023-07-02T03:46:51;99658.81;;;18.75;52.10
79645;BME280;69117;47.148;18.954;2023-07-02T03:49:53;99656.94;;;18.83;52.10
79645;BME280;69117;47.148;18.954;2023-07-02T03:52:55;99658.34;;;18.85;52.42
79645;BME280;69117;47.148;18.954;2023-07-02T03:55:57;99665.53;;;18.85;52.73
79645;BME280;69117;47.148;18.954;2023-07-02T03:58:58;99659.69;;;19.01;52.82
79645;BME280;69117;47.148;18.954;2023-07-02T04:02:00;99657.78;;;19.08;52.25
79645;BME280;69117;47.148;18.954;2023-07-02T04:05:02;99655.53;;;19.05;52.23
79645;BME280;69117;47.148;18.954;2023-07-02T04:08:04;99664.06;;;19.20;52.17
79645;BME280;69117;47.148;18.954;2023-07-02T04:11:05;99672.97;;;19.39;51.90
79645;BME280;69117;47.148;18.954;2023-07-02T04:14:07;99672.50;;;19.49;51.61
79645;BME280;69117;47.148;18.954;2023-07-02T04:17:09;99670.41;;;19.51;51.72
79645;BME280;69117;47.148;18.954;2023-07-02T04:20:11;99677.44;;;19.52;51.48
79645;BME280;69117;47.148;18.954;2023-07-02T04:23:12;99669.38;;;19.52;51.41
79645;BME280;69117;47.148;18.954;2023-07-02T04:26:14;99672.38;;;19.62;51.12
79645;BME280;69117;47.148;18.954;2023-07-02T04:29:36;99675.13;;;19.56;51.32
79645;BME280;69117;47.148;18.954;2023-07-02T04:32:38;99679.22;;;19.58;51.33
79645;BME280;69117;47.148;18.954;2023-07-02T04:35:43;99687.97;;;19.72;51.44
79645;BME280;69117;47.148;18.954;2023-07-02T04:38:45;99677.63;;;19.76;51.14
79645;BME280;69117;47.148;18.954;2023-07-02T04:41:46;99698.59;;;19.85;50.87
79645;BME280;69117;47.148;18.954;2023-07-02T04:44:50;99693.44;;;19.84;50.61
79645;BME280;69117;47.148;18.954;2023-07-02T04:47:52;99689.13;;;19.83;50.83
79645;BME280;69117;47.148;18.954;2023-07-02T04:50:54;99694.84;;;19.86;50.66
79645;BME280;69117;47.148;18.954;2023-07-02T04:53:55;99692.47;;;19.97;50.67
79645;BME280;69117;47.148;18.954;2023-07-02T04:56:57;99696.75;;;20.04;50.38
79645;BME280;69117;47.148;18.954;2023-07-02T05:00:00;99703.09;;;20.10;50.05
79645;BME280;69117;47.148;18.954;2023-07-02T05:03:02;99694.97;;;20.17;50.18
79645;BME280;69117;47.148;18.954;2023-07-02T05:06:04;99699.25;;;20.36;49.95
79645;BME280;69117;47.148;18.954;2023-07-02T05:09:06;99696.00;;;20.34;50.02
79645;BME280;69117;47.148;18.954;2023-07-02T05:12:09;99705.97;;;20.45;50.13
79645;BME280;69117;47.148;18.954;2023-07-02T05:15:11;99711.06;;;20.53;50.06
79645;BME280;69117;47.148;18.954;2023-07-02T05:18:13;99712.28;;;20.57;49.58
79645;BME280;69117;47.148;18.954;2023-07-02T05:21:17;99716.94;;;20.62;49.56
79645;BME280;69117;47.148;18.954;2023-07-02T05:24:19;99717.63;;;20.57;49.75
79645;BME280;69117;47.148;18.954;2023-07-02T05:27:21;99717.31;;;20.66;49.22
79645;BME280;69117;47.148;18.954;2023-07-02T05:30:22;99721.66;;;20.67;49.01
79645;BME280;69117;47.148;18.954;2023-07-02T05:33:24;99718.41;;;20.76;49.14
79645;BME280;69117;47.148;18.954;2023-07-02T05:36:25;99720.28;;;20.76;48.67
79645;BME280;69117;47.148;18.954;2023-07-02T05:39:27;99722.94;;;20.94;49.02
79645;BME280;69117;47.148;18.954;2023-07-02T05:42:29;99722.38;;;21.04;48.83
79645;BME280;69117;47.148;18.954;2023-07-02T05:45:30;99725.47;;;21.19;48.45
79645;BME280;69117;47.148;18.954;2023-07-02T05:48:33;99722.28;;;21.53;48.13
79645;BME280;69117;47.148;18.954;2023-07-02T05:51:34;99731.28;;;22.05;47.83
79645;BME280;69117;47.148;18.954;2023-07-02T05:54:40;99723.41;;;22.51;47.10
79645;BME280;69117;47.148;18.954;2023-07-02T05:57:41;99729.19;;;22.71;84.21
79645;BME280;69117;47.148;18.954;2023-07-02T06:00:43;99734.69;;;22.76;82.83
79645;BME280;69117;47.148;18.954;2023-07-02T06:03:51;99731.78;;;22.66;82.42
79645;BME280;69117;47.148;18.954;2023-07-02T06:06:53;99736.81;;;22.74;83.13
79645;BME280;69117;47.148;18.954;2023-07-02T06:09:54;99731.31;;;23.09;79.80
79645;BME280;69117;47.148;18.954;2023-07-02T06:12:56;99738.22;;;23.05;80.19
79645;BME280;69117;47.148;18.954;2023-07-02T06:15:58;99739.59;;;23.37;82.43
79645;BME280;69117;47.148;18.954;2023-07-02T06:18:59;99739.28;;;23.50;78.40
79645;BME280;69117;47.148;18.954;2023-07-02T06:22:01;99732.00;;;23.67;75.81
79645;BME280;69117;47.148;18.954;2023-07-02T06:25:03;99749.16;;;23.61;75.15
79645;BME280;69117;47.148;18.954;2023-07-02T06:28:06;99752.00;;;23.38;74.26
79645;BME280;69117;47.148;18.954;2023-07-02T06:31:08;99746.53;;;23.32;74.23
79645;BME280;69117;47.148;18.954;2023-07-02T06:34:09;99757.84;;;23.63;73.63
79645;BME280;69117;47.148;18.954;2023-07-02T06:37:11;99749.75;;;23.63;74.44
79645;BME280;69117;47.148;18.954;2023-07-02T06:40:13;99743.78;;;23.78;72.96
79645;BME280;69117;47.148;18.954;2023-07-02T06:43:14;99759.22;;;23.66;72.93
79645;BME280;69117;47.148;18.954;2023-07-02T06:46:16;99747.06;;;23.97;73.80
79645;BME280;69117;47.148;18.954;2023-07-02T06:49:18;99762.78;;;24.22;74.91
79645;BME280;69117;47.148;18.954;2023-07-02T06:52:20;99763.00;;;24.54;70.43
79645;BME280;69117;47.148;18.954;2023-07-02T06:55:21;99748.16;;;24.79;72.83
79645;BME280;69117;47.148;18.954;2023-07-02T06:58:25;99759.41;;;24.71;70.88
79645;BME280;69117;47.148;18.954;2023-07-02T07:01:26;99761.47;;;24.63;70.95
79645;BME280;69117;47.148;18.954;2023-07-02T07:04:28;99759.56;;;24.86;67.27
79645;BME280;69117;47.148;18.954;2023-07-02T07:07:30;99747.81;;;24.97;70.33
79645;BME280;69117;47.148;18.954;2023-07-02T07:10:31;99761.47;;;25.12;66.93
79645;BME280;69117;47.148;18.954;2023-07-02T07:13:35;99760.09;;;25.10;66.71
79645;BME280;69117;47.148;18.954;2023-07-02T07:16:37;99751.06;;;25.21;69.76
79645;BME280;69117;47.148;18.954;2023-07-02T07:19:39;99765.34;;;24.95;67.41
79645;BME280;69117;47.148;18.954;2023-07-02T07:22:40;99761.31;;;25.19;67.30
79645;BME280;69117;47.148;18.954;2023-07-02T07:25:42;99771.03;;;25.20;65.87
79645;BME280;69117;47.148;18.954;2023-07-02T07:28:44;99757.53;;;24.98;65.01
79645;BME280;69117;47.148;18.954;2023-07-02T07:31:45;99764.81;;;25.20;66.13
79645;BME280;69117;47.148;18.954;2023-07-02T07:34:47;99762.06;;;24.92;64.36
79645;BME280;69117;47.148;18.954;2023-07-02T07:37:49;99765.16;;;25.55;65.53
79645;BME280;69117;47.148;18.954;2023-07-02T07:40:51;99770.00;;;25.26;66.20
79645;BME280;69117;47.148;18.954;2023-07-02T07:43:53;99775.13;;;25.23;64.48
79645;BME280;69117;47.148;18.954;2023-07-02T07:46:55;99768.72;;;25.07;62.35
79645;BME280;69117;47.148;18.954;2023-07-02T07:49:57;99771.59;;;25.22;63.00
79645;BME280;69117;47.148;18.954;2023-07-02T07:52:59;99771.88;;;25.53;62.07
79645;BME280;69117;47.148;18.954;2023-07-02T07:56:00;99776.19;;;25.49;59.43
79645;BME280;69117;47.148;18.954;2023-07-02T07:59:02;99775.88;;;25.45;60.25
79645;BME280;69117;47.148;18.954;2023-07-02T08:02:04;99771.34;;;25.83;60.80
79645;BME280;69117;47.148;18.954;2023-07-02T08:05:06;99789.34;;;25.99;57.93
79645;BME280;69117;47.148;18.954;2023-07-02T08:08:08;99775.59;;;26.11;58.46
79645;BME280;69117;47.148;18.954;2023-07-02T08:11:10;99791.41;;;26.24;58.40
79645;BME280;69117;47.148;18.954;2023-07-02T08:14:12;99783.22;;;26.62;56.80
79645;BME280;69117;47.148;18.954;2023-07-02T08:17:14;99780.50;;;26.62;56.11
79645;BME280;69117;47.148;18.954;2023-07-02T08:20:16;99788.75;;;26.98;55.18
79645;BME280;69117;47.148;18.954;2023-07-02T08:23:18;99779.00;;;27.02;54.54
79645;BME280;69117;47.148;18.954;2023-07-02T08:26:20;99796.22;;;27.74;56.91
79645;BME280;69117;47.148;18.954;2023-07-02T08:29:21;99784.47;;;27.12;54.97
79645;BME280;69117;47.148;18.954;2023-07-02T08:32:23;99797.00;;;27.18;53.44
79645;BME280;69117;47.148;18.954;2023-07-02T08:35:25;99806.22;;;26.59;56.15
79645;BME280;69117;47.148;18.954;2023-07-02T08:38:26;99803.84;;;26.63;56.22
79645;BME280;69117;47.148;18.954;2023-07-02T08:41:29;99807.16;;;26.85;56.96
79645;BME280;69117;47.148;18.954;2023-07-02T08:44:31;99814.31;;;27.12;57.20
79645;BME280;69117;47.148;18.954;2023-07-02T08:47:33;99803.22;;;26.56;55.52
79645;BME280;69117;47.148;18.954;2023-07-02T08:50:34;99812.59;;;26.33;55.40
79645;BME280;69117;47.148;18.954;2023-07-02T08:53:36;99813.38;;;25.91;56.07
79645;BME280;69117;47.148;18.954;2023-07-02T08:56:38;99818.91;;;25.47;57.73
79645;BME280;69117;47.148;18.954;2023-07-02T08:59:40;99831.09;;;25.49;57.85
79645;BME280;69117;47.148;18.954;2023-07-02T09:02:42;99824.16;;;25.58;58.15
79645;BME280;69117;47.148;18.954;2023-07-02T09:06:01;99830.88;;;25.29;55.66
79645;BME280;69117;47.148;18.954;2023-07-02T09:09:04;99825.91;;;25.75;54.71
79645;BME280;69117;47.148;18.954;2023-07-02T09:12:06;99827.09;;;26.16;54.80
79645;BME280;69117;47.148;18.954;2023-07-02T09:15:08;99829.28;;;26.62;53.87
79645;BME280;69117;47.148;18.954;2023-07-02T09:21:17;99831.50;;;27.53;50.29
79645;BME280;69117;47.148;18.954;2023-07-02T09:24:21;99839.97;;;27.93;50.03
79645;BME280;69117;47.148;18.954;2023-07-02T09:27:37;99835.00;;;27.33;49.97
79645;BME280;69117;47.148;18.954;2023-07-02T09:30:56;99835.41;;;27.05;52.08
79645;BME280;69117;47.148;18.954;2023-07-02T09:34:02;99835.97;;;27.07;52.46
79645;BME280;69117;47.148;18.954;2023-07-02T09:37:05;99840.84;;;27.00;51.78
79645;BME280;69117;47.148;18.954;2023-07-02T09:40:07;99841.97;;;27.14;56.45
79645;BME280;69117;47.148;18.954;2023-07-02T09:43:11;99837.31;;;26.99;50.31
79645;BME280;69117;47.148;18.954;2023-07-02T09:46:13;99835.53;;;27.25;50.05
79645;BME280;69117;47.148;18.954;2023-07-02T09:49:17;99830.13;;;27.46;46.30
79645;BME280;69117;47.148;18.954;2023-07-02T09:52:21;99832.31;;;27.74;49.27
79645;BME280;69117;47.148;18.954;2023-07-02T09:55:23;99820.38;;;27.70;47.26
79645;BME280;69117;47.148;18.954;2023-07-02T09:58:25;99828.00;;;28.04;50.42
79645;BME280;69117;47.148;18.954;2023-07-02T10:01:27;99825.81;;;28.42;52.13
79645;BME280;69117;47.148;18.954;2023-07-02T10:04:39;99823.47;;;28.90;46.91
79645;BME280;69117;47.148;18.954;2023-07-02T10:07:41;99838.06;;;28.08;46.19
79645;BME280;69117;47.148;18.954;2023-07-02T10:10:43;99831.16;;;28.67;46.42
79645;BME280;69117;47.148;18.954;2023-07-02T10:13:45;99845.31;;;28.69;46.24
79645;BME280;69117;47.148;18.954;2023-07-02T10:16:53;99833.72;;;28.07;49.18
79645;BME280;69117;47.148;18.954;2023-07-02T10:19:58;99831.53;;;28.09;48.21
79645;BME280;69117;47.148;18.954;2023-07-02T10:23:00;99830.56;;;28.86;47.29
79645;BME280;69117;47.148;18.954;2023-07-02T10:26:13;99822.91;;;29.48;44.55
79645;BME280;69117;47.148;18.954;2023-07-02T10:29:18;99821.03;;;28.88;43.76
79645;BME280;69117;47.148;18.954;2023-07-02T10:32:27;99827.41;;;29.23;44.86
79645;BME280;69117;47.148;18.954;2023-07-02T10:35:32;99822.47;;;29.30;44.08
79645;BME280;69117;47.148;18.954;2023-07-02T10:38:34;99820.63;;;29.20;43.83
79645;BME280;69117;47.148;18.954;2023-07-02T10:41:36;99821.00;;;28.93;43.20
79645;BME280;69117;47.148;18.954;2023-07-02T10:44:50;99827.91;;;29.30;42.91
79645;BME280;69117;47.148;18.954;2023-07-02T10:47:52;99810.38;;;29.02;47.22
79645;BME280;69117;47.148;18.954;2023-07-02T10:50:53;99813.44;;;28.80;46.40
79645;BME280;69117;47.148;18.954;2023-07-02T10:53:59;99814.16;;;29.11;45.94
79645;BME280;69117;47.148;18.954;2023-07-02T10:57:01;99806.78;;;29.90;44.29
79645;BME280;69117;47.148;18.954;2023-07-02T11:00:06;99809.09;;;30.61;45.96
79645;BME280;69117;47.148;18.954;2023-07-02T11:03:26;99806.34;;;30.37;41.69
79645;BME280;69117;47.148;18.954;2023-07-02T11:06:29;99800.91;;;30.37;45.88
79645;BME280;69117;47.148;18.954;2023-07-02T11:09:32;99806.34;;;30.07;43.26
79645;BME280;69117;47.148;18.954;2023-07-02T11:12:34;99800.97;;;29.68;42.55
79645;BME280;69117;47.148;18.954;2023-07-02T11:15:36;99787.97;;;30.47;43.37
79645;BME280;69117;47.148;18.954;2023-07-02T11:18:38;99782.09;;;30.59;43.04
79645;BME280;69117;47.148;18.954;2023-07-02T11:21:54;99789.06;;;30.46;43.65
79645;BME280;69117;47.148;18.954;2023-07-02T11:25:17;99786.16;;;30.38;43.76
79645;BME280;69117;47.148;18.954;2023-07-02T11:28:19;99791.22;;;30.49;42.70
79645;BME280;69117;47.148;18.954;2023-07-02T11:31:26;99791.13;;;30.35;42.38
79645;BME280;69117;47.148;18.954;2023-07-02T11:34:31;99800.06;;;30.41;41.46
79645;BME280;69117;47.148;18.954;2023-07-02T11:37:33;99791.63;;;30.08;42.96
79645;BME280;69117;47.148;18.954;2023-07-02T11:40:34;99793.31;;;30.57;39.12
79645;BME280;69117;47.148;18.954;2023-07-02T11:43:37;99790.28;;;30.83;39.23
79645;BME280;69117;47.148;18.954;2023-07-02T11:46:40;99781.44;;;30.91;40.46
79645;BME280;69117;47.148;18.954;2023-07-02T11:49:41;99798.94;;;31.09;39.43
79645;BME280;69117;47.148;18.954;2023-07-02T11:52:43;99800.72;;;31.38;39.07
79645;BME280;69117;47.148;18.954;2023-07-02T11:55:45;99804.00;;;30.54;42.50
79645;BME280;69117;47.148;18.954;2023-07-02T11:58:47;99800.56;;;29.51;40.48
79645;BME280;69117;47.148;18.954;2023-07-02T12:01:49;99791.34;;;30.63;39.54
79645;BME280;69117;47.148;18.954;2023-07-02T12:04:50;99807.78;;;30.77;41.52
79645;BME280;69117;47.148;18.954;2023-07-02T12:07:52;99803.44;;;31.19;39.41
79645;BME280;69117;47.148;18.954;2023-07-02T12:10:54;99790.66;;;30.95;39.18
79645;BME280;69117;47.148;18.954;2023-07-02T12:13:55;99790.34;;;31.73;39.38
79645;BME280;69117;47.148;18.954;2023-07-02T12:16:57;99791.34;;;30.87;42.62
79645;BME280;69117;47.148;18.954;2023-07-02T12:19:59;99785.22;;;31.14;39.99
79645;BME280;69117;47.148;18.954;2023-07-02T12:23:00;99779.91;;;31.04;38.24
79645;BME280;69117;47.148;18.954;2023-07-02T12:26:02;99794.28;;;31.10;39.17
79645;BME280;69117;47.148;18.954;2023-07-02T12:29:04;99784.78;;;31.45;38.03
79645;BME280;69117;47.148;18.954;2023-07-02T12:32:06;99789.72;;;31.24;38.83
79645;BME280;69117;47.148;18.954;2023-07-02T12:35:08;99777.88;;;32.13;38.65
79645;BME280;69117;47.148;18.954;2023-07-02T12:38:09;99791.25;;;31.49;37.28
79645;BME280;69117;47.148;18.954;2023-07-02T12:41:11;99796.66;;;32.33;36.71
79645;BME280;69117;47.148;18.954;2023-07-02T12:44:13;99787.00;;;32.22;36.43
79645;BME280;69117;47.148;18.954;2023-07-02T12:47:14;99790.66;;;31.52;39.59
79645;BME280;69117;47.148;18.954;2023-07-02T12:50:16;99806.78;;;31.86;36.94
79645;BME280;69117;47.148;18.954;2023-07-02T12:53:18;99796.41;;;30.94;38.31
79645;BME280;69117;47.148;18.954;2023-07-02T12:56:20;99810.06;;;31.69;37.58
79645;BME280;69117;47.148;18.954;2023-07-02T12:59:21;99795.75;;;30.35;39.25
79645;BME280;69117;47.148;18.954;2023-07-02T13:02:24;99802.50;;;31.47;39.13
79645;BME280;69117;47.148;18.954;2023-07-02T13:05:25;99798.13;;;31.46;40.39
79645;BME280;69117;47.148;18.954;2023-07-02T13:08:27;99806.63;;;31.97;38.83
79645;BME280;69117;47.148;18.954;2023-07-02T13:11:29;99808.13;;;32.63;40.03
79645;BME280;69117;47.148;18.954;2023-07-02T13:14:30;99807.94;;;32.59;36.09
79645;BME280;69117;47.148;18.954;2023-07-02T13:17:32;99803.72;;;32.34;37.64
79645;BME280;69117;47.148;18.954;2023-07-02T13:20:34;99797.38;;;32.67;36.17
79645;BME280;69117;47.148;18.954;2023-07-02T13:23:36;99800.69;;;33.05;36.63
79645;BME280;69117;47.148;18.954;2023-07-02T13:26:38;99801.03;;;33.62;34.66
79645;BME280;69117;47.148;18.954;2023-07-02T13:29:39;99796.38;;;33.49;35.88
79645;BME280;69117;47.148;18.954;2023-07-02T13:32:41;99793.84;;;33.52;34.47
79645;BME280;69117;47.148;18.954;2023-07-02T13:35:43;99787.47;;;34.11;34.75
79645;BME280;69117;47.148;18.954;2023-07-02T13:38:45;99814.81;;;32.57;35.72
79645;BME280;69117;47.148;18.954;2023-07-02T13:41:47;99797.00;;;31.29;39.55
79645;BME280;69117;47.148;18.954;2023-07-02T13:44:48;99802.16;;;32.75;36.14
79645;BME280;69117;47.148;18.954;2023-07-02T13:47:50;99803.59;;;33.45;35.17
79645;BME280;69117;47.148;18.954;2023-07-02T13:50:52;99792.31;;;31.34;38.33
79645;BME280;69117;47.148;18.954;2023-07-02T13:53:53;99798.56;;;32.33;36.02
79645;BME280;69117;47.148;18.954;2023-07-02T13:56:56;99790.72;;;31.66;38.68
79645;BME280;69117;47.148;18.954;2023-07-02T13:59:57;99785.25;;;33.23;36.25
79645;BME280;69117;47.148;18.954;2023-07-02T14:02:59;99796.75;;;32.14;37.04
79645;BME280;69117;47.148;18.954;2023-07-02T14:06:01;99785.50;;;33.80;36.05
79645;BME280;69117;47.148;18.954;2023-07-02T14:09:03;99780.75;;;33.27;35.80
79645;BME280;69117;47.148;18.954;2023-07-02T14:12:05;99776.53;;;34.19;34.38
79645;BME280;69117;47.148;18.954;2023-07-02T14:15:09;99774.03;;;34.49;32.47
79645;BME280;69117;47.148;18.954;2023-07-02T14:18:11;99778.38;;;35.25;29.87
79645;BME280;69117;47.148;18.954;2023-07-02T14:21:13;99783.75;;;33.84;31.22
79645;BME280;69117;47.148;18.954;2023-07-02T14:24:15;99786.09;;;33.68;31.63
79645;BME280;69117;47.148;18.954;2023-07-02T14:27:17;99787.22;;;34.78;32.90
79645;BME280;69117;47.148;18.954;2023-07-02T14:30:19;99783.13;;;34.58;30.96
79645;BME280;69117;47.148;18.954;2023-07-02T14:33:20;99775.38;;;34.12;32.83
79645;BME280;69117;47.148;18.954;2023-07-02T14:36:22;99784.13;;;34.23;32.51
79645;BME280;69117;47.148;18.954;2023-07-02T14:39:24;99792.06;;;32.15;33.81
79645;BME280;69117;47.148;18.954;2023-07-02T14:42:25;99780.41;;;32.09;34.35
79645;BME280;69117;47.148;18.954;2023-07-02T14:45:27;99792.94;;;30.88;36.50
79645;BME280;69117;47.148;18.954;2023-07-02T14:48:29;99793.06;;;31.73;35.40
79645;BME280;69117;47.148;18.954;2023-07-02T14:51:31;99789.38;;;32.29;35.37
79645;BME280;69117;47.148;18.954;2023-07-02T14:54:33;99777.25;;;31.37;35.88
79645;BME280;69117;47.148;18.954;2023-07-02T14:57:35;99776.06;;;32.91;33.33
79645;BME280;69117;47.148;18.954;2023-07-02T15:00:48;99775.38;;;34.12;33.50
79645;BME280;69117;47.148;18.954;2023-07-02T15:03:50;99775.59;;;34.33;31.43
79645;BME280;69117;47.148;18.954;2023-07-02T15:06:52;99778.00;;;33.04;32.83
79645;BME280;69117;47.148;18.954;2023-07-02T15:09:54;99768.69;;;34.35;30.80
79645;BME280;69117;47.148;18.954;2023-07-02T15:12:55;99773.03;;;34.36;31.45
79645;BME280;69117;47.148;18.954;2023-07-02T15:15:57;99783.16;;;31.96;35.27
79645;BME280;69117;47.148;18.954;2023-07-02T15:18:58;99783.78;;;29.73;38.80
79645;BME280;69117;47.148;18.954;2023-07-02T15:22:00;99792.13;;;29.47;40.44
79645;BME280;69117;47.148;18.954;2023-07-02T15:25:02;99790.38;;;28.62;41.07
79645;BME280;69117;47.148;18.954;2023-07-02T15:28:04;99788.53;;;28.52;42.16
79645;BME280;69117;47.148;18.954;2023-07-02T15:31:08;99800.25;;;28.43;43.81
79645;BME280;69117;47.148;18.954;2023-07-02T15:34:12;99795.88;;;28.47;43.62
79645;BME280;69117;47.148;18.954;2023-07-02T15:37:17;99803.03;;;28.12;45.11
79645;BME280;69117;47.148;18.954;2023-07-02T15:40:19;99799.53;;;29.41;42.26
79645;BME280;69117;47.148;18.954;2023-07-02T15:43:21;99811.78;;;31.09;38.14
79645;BME280;69117;47.148;18.954;2023-07-02T15:46:22;99808.78;;;31.81;37.81
79645;BME280;69117;47.148;18.954;2023-07-02T15:49:25;99801.41;;;32.14;36.22
79645;BME280;69117;47.148;18.954;2023-07-02T15:52:27;99804.06;;;32.47;34.25
79645;BME280;69117;47.148;18.954;2023-07-02T15:55:28;99812.72;;;32.07;35.54
79645;BME280;69117;47.148;18.954;2023-07-02T15:58:32;99806.34;;;31.79;35.59